Time;durP1;ratioP1;P1;durP2;ratioP2;P2;SDS_P1;SDS_P2;PMS_P1;PMS_P2;Temp;Humidity;BMP_temperature;BMP_pressure;BME280_temperature;BME280_humidity;BME280_pressure;Samples;Min_cycle;Max_cycle;Signal;HPM_P1;HPM_P2
2022/08/03 00:02:22;;;;;;;3.13;2.92;;;20.90;99.90;;;;;;10626997;27;20565;-89
2022/08/03 00:07:25;;;;;;;3.42;3.22;;;20.90;99.90;;;;;;10626949;27;20257;-89
2022/08/03 00:12:27;;;;;;;3.60;3.30;;;20.90;99.90;;;;;;10626190;27;20245;-89
2022/08/03 00:17:30;;;;;;;3.10;2.90;;;20.90;99.90;;;;;;10625663;27;20217;-90
2022/08/03 00:22:52;;;;;;;3.60;3.35;;;20.90;99.90;;;;;;10614266;27;20192;-89
2022/08/03 00:27:54;;;;;;;3.80;3.50;;;20.90;99.90;;;;;;10610025;27;20208;-90
2022/08/03 00:32:58;;;;;;;3.55;3.25;;;20.90;99.90;;;;;;10608186;27;20224;-90
2022/08/03 00:38:00;;;;;;;3.40;3.17;;;20.90;99.90;;;;;;10607158;27;20593;-89
2022/08/03 00:43:06;;;;;;;3.38;2.90;;;20.80;99.90;;;;;;10606782;27;20193;-90
2022/08/03 00:48:10;;;;;;;3.70;3.40;;;20.80;99.90;;;;;;10606894;27;20200;-90
2022/08/03 00:53:35;;;;;;;3.28;3.08;;;20.80;99.90;;;;;;10624933;27;20253;-89
2022/08/03 00:58:37;;;;;;;3.75;3.45;;;20.80;99.90;;;;;;10605869;27;20224;-89
2022/08/03 01:03:40;;;;;;;3.75;3.45;;;20.80;99.90;;;;;;10624386;27;20580;-89
2022/08/03 01:08:49;;;;;;;3.05;2.85;;;20.80;99.90;;;;;;10624306;27;20248;-89
2022/08/03 01:14:02;;;;;;;3.35;3.15;;;20.80;99.90;;;;;;10606241;27;20196;-90
2022/08/03 01:19:39;;;;;;;3.63;3.40;;;20.80;99.90;;;;;;10623918;27;20242;-89
2022/08/03 01:24:56;;;;;;;3.67;3.38;;;20.80;99.90;;;;;;10623469;27;20188;-90
2022/08/03 01:30:02;;;;;;;2.92;2.63;;;20.80;99.90;;;;;;10623133;27;20240;-90
2022/08/03 01:35:11;;;;;;;3.33;3.13;;;20.80;99.90;;;;;;10624019;27;20228;-89
2022/08/03 01:40:14;;;;;;;3.35;3.10;;;20.80;99.90;;;;;;10623341;28;20188;-89
2022/08/03 01:45:19;;;;;;;3.05;2.83;;;20.80;99.90;;;;;;10623144;28;20599;-90
2022/08/03 01:50:26;;;;;;;3.50;3.30;;;20.80;99.90;;;;;;10604139;28;20204;-90
2022/08/03 01:55:32;;;;;;;2.97;2.78;;;20.80;99.90;;;;;;10605332;28;20220;-89
2022/08/03 02:00:36;;;;;;;3.58;3.28;;;20.80;99.90;;;;;;10623188;28;20189;-89
2022/08/03 02:05:39;;;;;;;3.78;3.47;;;20.80;99.90;;;;;;10604858;28;20200;-89
2022/08/03 02:10:44;;;;;;;4.03;3.72;;;20.80;99.90;;;;;;10604449;28;20610;-89
2022/08/03 02:15:48;;;;;;;3.95;3.60;;;20.80;99.90;;;;;;10622372;28;20242;-89
2022/08/03 02:20:51;;;;;;;3.55;3.08;;;20.80;99.90;;;;;;10587367;28;20670;-90
2022/08/03 02:25:57;;;;;;;3.90;3.58;;;20.80;99.90;;;;;;10622616;28;20237;-90
2022/08/03 02:31:11;;;;;;;3.95;3.65;;;20.80;99.90;;;;;;10604550;28;20241;-89
2022/08/03 02:36:16;;;;;;;3.63;3.33;;;20.80;99.90;;;;;;10621959;28;20761;-90
2022/08/03 02:41:24;;;;;;;3.40;3.10;;;20.90;99.90;;;;;;10623423;27;20188;-89
2022/08/03 02:46:31;;;;;;;3.97;3.67;;;20.80;99.90;;;;;;10629816;27;20196;-89
2022/08/03 02:51:36;;;;;;;3.88;3.58;;;20.90;99.90;;;;;;10611393;27;20610;-89
2022/08/03 02:56:40;;;;;;;3.67;3.38;;;20.90;99.90;;;;;;10593576;27;20273;-89
2022/08/03 03:01:44;;;;;;;3.15;2.95;;;20.90;99.90;;;;;;10628763;27;20541;-90
2022/08/03 03:06:47;;;;;;;3.25;3.05;;;20.90;99.90;;;;;;10611200;27;20556;-89
2022/08/03 03:11:52;;;;;;;3.45;3.15;;;20.90;99.90;;;;;;10628832;27;20603;-89
2022/08/03 03:16:55;;;;;;;4.03;3.72;;;20.90;99.90;;;;;;10628379;27;20252;-89
2022/08/03 03:22:01;;;;;;;3.33;3.13;;;20.90;99.90;;;;;;10628094;27;20611;-89
2022/08/03 03:27:04;;;;;;;3.17;2.88;;;20.90;99.90;;;;;;10610322;27;20237;-90
2022/08/03 03:32:06;;;;;;;4.05;3.60;;;20.90;99.90;;;;;;10609346;27;20232;-90
2022/08/03 03:37:11;;;;;;;3.00;2.78;;;20.90;99.90;;;;;;10609961;27;20220;-90
2022/08/03 03:42:14;;;;;;;2.85;2.65;;;20.90;99.90;;;;;;10627409;27;20189;-90
2022/08/03 03:47:17;;;;;;;3.10;2.90;;;20.90;99.90;;;;;;10627192;27;20222;-90
2022/08/03 03:52:34;;;;;;;3.97;3.67;;;20.90;99.90;;;;;;10608463;27;20248;-89
2022/08/03 03:57:36;;;;;;;3.67;3.38;;;20.90;99.90;;;;;;10607861;27;20636;-90
2022/08/03 04:02:39;;;;;;;3.15;2.85;;;21.00;99.90;;;;;;10626274;27;20196;-89
2022/08/03 04:13:15;;;;;;;3.60;3.30;;;21.00;99.90;;;;;;10607377;27;20229;-90
2022/08/03 04:18:19;;;;;;;3.00;2.80;;;21.00;99.90;;;;;;10607117;27;20216;-89
2022/08/03 04:23:26;;;;;;;3.60;3.30;;;21.10;99.90;;;;;;10625780;27;20526;-89
2022/08/03 04:28:31;;;;;;;3.67;3.38;;;21.10;99.90;;;;;;10625936;27;20222;-90
2022/08/03 04:33:37;;;;;;;3.38;3.05;;;21.20;99.90;;;;;;10607519;27;20220;-89
2022/08/03 04:38:53;;;;;;;3.53;3.22;;;21.20;99.90;;;;;;10606374;27;20228;-89
2022/08/03 04:43:59;;;;;;;3.50;3.20;;;21.20;99.90;;;;;;10625014;27;20233;-90
2022/08/03 04:49:02;;;;;;;3.33;3.13;;;21.20;99.90;;;;;;10624693;27;20253;-89
2022/08/03 04:54:06;;;;;;;3.92;3.50;;;21.20;99.90;;;;;;10606660;27;20192;-89
2022/08/03 04:59:09;;;;;;;3.30;3.00;;;21.20;99.90;;;;;;10624261;27;20208;-89
2022/08/03 05:04:12;;;;;;;4.05;3.47;;;21.20;99.90;;;;;;10605237;27;20726;-89
2022/08/03 05:09:14;;;;;;;3.78;3.47;;;21.20;99.90;;;;;;10606051;27;20189;-90
2022/08/03 05:14:37;;;;;;;3.25;2.97;;;21.30;99.90;;;;;;10608824;27;20188;-90
2022/08/03 05:19:40;;;;;;;3.00;2.70;;;21.30;99.90;;;;;;10623650;27;20211;-89
2022/08/03 05:24:42;;;;;;;3.75;3.45;;;21.40;99.90;;;;;;10624175;27;20185;-90
2022/08/03 05:29:46;;;;;;;3.38;3.08;;;21.30;99.90;;;;;;10623866;27;20192;-90
2022/08/03 05:34:49;;;;;;;3.15;2.95;;;21.30;99.90;;;;;;10588265;27;20696;-89
2022/08/03 05:39:51;;;;;;;3.60;3.30;;;21.40;99.90;;;;;;10623865;28;20216;-89
2022/08/03 05:44:54;;;;;;;3.78;3.47;;;21.50;99.90;;;;;;10604482;28;20252;-89
2022/08/03 05:49:57;;;;;;;3.42;3.13;;;21.50;99.90;;;;;;10605306;28;20204;-89
2022/08/03 05:55:00;;;;;;;6.03;5.53;;;21.50;99.90;;;;;;10587874;28;20229;-89
2022/08/03 06:00:05;;;;;;;3.47;3.15;;;21.30;99.90;;;;;;10604894;28;20228;-89
2022/08/03 06:05:12;;;;;;;3.65;3.35;;;21.30;99.90;;;;;;10625415;27;20249;-88
2022/08/03 06:10:15;;;;;;;3.90;3.60;;;21.40;99.90;;;;;;10604881;28;20208;-89
2022/08/03 06:15:37;;;;;;;5.70;5.18;;;21.40;99.90;;;;;;10622942;27;20248;-89
2022/08/03 06:20:40;;;;;;;7.70;7.00;;;21.50;99.90;;;;;;10611714;27;20284;-90
2022/08/03 06:25:42;;;;;;;9.63;8.20;;;21.60;99.90;;;;;;10630811;27;20197;-89
2022/08/03 06:30:45;;;;;;;4.40;4.03;;;21.80;99.90;;;;;;10611672;27;20582;-89
2022/08/03 06:35:51;;;;;;;11.63;7.97;;;21.80;99.90;;;;;;10612286;27;20220;-89
2022/08/03 06:40:54;;;;;;;7.03;6.28;;;22.00;99.90;;;;;;10611490;27;20216;-89
2022/08/03 06:45:56;;;;;;;4.63;3.75;;;22.10;99.90;;;;;;10629923;27;20188;-88
2022/08/03 06:50:59;;;;;;;8.73;7.82;;;22.00;99.90;;;;;;10629609;27;20197;-89
2022/08/03 06:56:03;;;;;;;6.25;5.45;;;22.30;99.90;;;;;;10611554;27;20192;-89
2022/08/03 07:01:05;;;;;;;4.22;3.83;;;22.50;99.90;;;;;;10610350;27;20612;-90
2022/08/03 07:06:08;;;;;;;11.57;6.78;;;22.50;99.90;;;;;;10629107;27;20260;-90
2022/08/03 07:11:10;;;;;;;3.95;3.65;;;22.50;99.90;;;;;;10610450;27;20249;-89
2022/08/03 07:16:13;;;;;;;8.48;7.35;;;22.50;99.90;;;;;;10610319;27;20188;-89
2022/08/03 07:21:15;;;;;;;10.13;7.30;;;22.60;99.90;;;;;;10610416;27;20665;-90
2022/08/03 07:26:18;;;;;;;5.85;5.28;;;22.90;99.90;;;;;;10609707;27;20209;-89
2022/08/03 07:31:20;;;;;;;7.43;6.07;;;23.00;99.90;;;;;;10627583;27;20617;-90
2022/08/03 07:36:23;;;;;;;8.57;6.28;;;23.20;99.90;;;;;;10628027;27;20575;-90
2022/08/03 07:41:26;;;;;;;9.50;5.63;;;23.50;99.90;;;;;;10627642;27;20233;-89
2022/08/03 07:46:28;;;;;;;6.78;6.18;;;23.30;99.90;;;;;;10627715;27;20196;-89
2022/08/03 07:51:31;;;;;;;5.80;5.30;;;23.90;99.90;;;;;;10609596;27;20204;-90
2022/08/03 07:56:34;;;;;;;8.82;5.75;;;24.10;99.90;;;;;;10609388;27;20204;-89
2022/08/03 08:01:37;;;;;;;3.78;3.55;;;24.10;99.90;;;;;;10608678;27;20562;-89
2022/08/03 08:06:40;;;;;;;4.72;4.32;;;24.40;99.90;;;;;;10608747;27;20291;-90
2022/08/03 08:11:42;;;;;;;4.65;4.25;;;24.60;99.90;;;;;;10590946;27;20249;-90
2022/08/03 08:16:46;;;;;;;7.45;4.40;;;24.70;99.90;;;;;;10607698;27;20696;-90
2022/08/03 08:21:49;;;;;;;4.68;4.35;;;25.00;99.90;;;;;;10590634;27;20249;-89
2022/08/03 08:27:03;;;;;;;9.57;4.28;;;25.10;99.90;;;;;;10608168;27;20620;-90
2022/08/03 08:32:05;;;;;;;5.80;4.47;;;25.00;99.90;;;;;;10607550;27;20224;-90
2022/08/03 08:37:09;;;;;;;7.15;4.72;;;25.40;99.90;;;;;;10607531;27;20216;-90
2022/08/03 08:42:11;;;;;;;5.32;3.75;;;25.50;99.90;;;;;;10624766;27;20253;-89
2022/08/03 08:47:14;;;;;;;3.83;3.53;;;25.50;99.90;;;;;;10607580;27;20196;-89
2022/08/03 08:52:22;;;;;;;6.40;4.28;;;25.50;99.90;;;;;;10625069;27;20200;-90
2022/08/03 08:57:36;;;;;;;5.97;4.72;;;25.60;99.90;;;;;;10624713;27;20212;-90
2022/08/03 09:02:45;;;;;;;5.95;4.65;;;25.90;99.90;;;;;;10605861;27;20196;-90
2022/08/03 09:07:48;;;;;;;4.07;3.63;;;26.10;99.90;;;;;;10624311;27;20599;-89
2022/08/03 09:12:52;;;;;;;3.65;3.33;;;25.00;99.90;;;;;;10606051;27;20213;-89
2022/08/03 09:17:56;;;;;;;11.23;5.60;;;24.80;99.90;;;;;;10606194;27;20237;-89
2022/08/03 09:23:15;;;;;;;4.30;4.00;;;25.40;99.90;;;;;;10605620;27;20249;-89
2022/08/03 09:28:38;;;;;;;4.28;3.95;;;25.50;99.90;;;;;;10623689;27;20189;-89
2022/08/03 09:34:09;;;;;;;6.00;3.90;;;24.60;99.90;;;;;;10623323;27;20572;-89
2022/08/03 09:39:17;;;;;;;3.75;3.50;;;25.20;99.90;;;;;;10623661;27;20268;-89
2022/08/03 09:44:33;;;;;;;4.22;3.83;;;24.40;99.90;;;;;;10604758;28;20226;-90
2022/08/03 09:49:38;;;;;;;4.97;3.88;;;25.00;99.90;;;;;;10623469;28;20192;-89
2022/08/03 09:54:42;;;;;;;4.32;3.90;;;25.10;99.90;;;;;;10612699;27;20622;-90
2022/08/03 09:59:45;;;;;;;4.90;4.45;;;25.00;99.90;;;;;;10631972;27;20212;-88
2022/08/03 10:04:49;;;;;;;4.20;3.90;;;25.30;99.90;;;;;;10613280;27;20269;-89
2022/08/03 10:10:01;;;;;;;6.18;4.55;;;25.30;99.90;;;;;;10613233;27;20200;-89
2022/08/03 10:15:24;;;;;;;4.53;4.13;;;26.50;99.90;;;;;;10599013;27;20669;-89
2022/08/03 10:20:57;;;;;;;4.70;4.40;;;26.70;99.90;;;;;;10615623;27;20328;-90
2022/08/03 10:26:03;;;;;;;7.13;4.05;;;26.80;99.90;;;;;;10612664;27;20184;-89
2022/08/03 10:31:08;;;;;;;4.63;4.22;;;26.50;99.90;;;;;;10612307;27;20609;-88
2022/08/03 10:36:13;;;;;;;4.22;3.83;;;27.50;99.90;;;;;;10630666;27;20196;-89
2022/08/03 10:41:18;;;;;;;4.55;4.15;;;27.60;99.90;;;;;;10612337;27;20212;-89
2022/08/03 10:46:21;;;;;;;4.10;3.55;;;26.80;99.90;;;;;;10594972;27;20201;-88
2022/08/03 10:51:29;;;;;;;4.15;3.75;;;27.50;99.90;;;;;;10611769;27;20188;-89
2022/08/03 11:01:56;;;;;;;4.20;3.80;;;27.60;99.90;;;;;;10628654;27;20577;-89
2022/08/03 11:07:22;;;;;;;8.45;4.15;;;27.00;99.90;;;;;;10610424;27;20200;-89
2022/08/03 11:12:30;;;;;;;4.70;4.25;;;27.00;99.90;;;;;;10610735;27;20192;-89
2022/08/03 11:17:35;;;;;;;3.75;3.30;;;27.50;99.90;;;;;;10610990;27;20205;-88
2022/08/03 11:22:59;;;;;;;4.78;3.95;;;27.20;99.90;;;;;;10613755;27;20184;-88
2022/08/03 11:28:25;;;;;;;4.05;3.75;;;26.70;99.90;;;;;;10628640;27;20241;-89
2022/08/03 11:33:29;;;;;;;4.05;3.65;;;25.80;99.90;;;;;;10628046;27;20224;-89
2022/08/03 11:38:32;;;;;;;4.20;3.90;;;26.00;99.90;;;;;;10609454;27;20212;-89
2022/08/03 11:43:36;;;;;;;4.25;3.30;;;26.80;99.90;;;;;;10627774;27;20184;-89
2022/08/03 11:48:42;;;;;;;5.13;4.13;;;27.60;99.90;;;;;;10608709;27;20208;-88
2022/08/03 11:53:46;;;;;;;4.63;3.10;;;27.70;99.90;;;;;;10612318;27;20201;-88
2022/08/03 11:58:52;;;;;;;3.88;3.40;;;27.00;99.90;;;;;;10627109;27;20212;-89
2022/08/03 12:04:15;;;;;;;3.85;3.50;;;27.90;99.90;;;;;;10608126;27;20201;-89
2022/08/03 12:09:17;;;;;;;3.60;3.30;;;27.70;99.90;;;;;;10609063;27;20558;-89
2022/08/03 12:14:22;;;;;;;3.75;3.45;;;28.00;97.00;;;;;;10606485;27;20658;-89
2022/08/03 12:19:45;;;;;;;8.07;3.15;;;28.10;98.40;;;;;;10593129;27;20697;-89
2022/08/03 12:24:47;;;;;;;4.22;3.85;;;28.50;96.50;;;;;;10626294;27;20237;-89
2022/08/03 12:29:53;;;;;;;4.03;3.70;;;26.90;99.90;;;;;;10626410;27;20241;-89
2022/08/03 12:35:03;;;;;;;4.80;3.05;;;27.50;99.90;;;;;;10608075;27;20232;-89
2022/08/03 12:40:06;;;;;;;3.28;2.95;;;28.20;96.30;;;;;;10626954;27;20273;-90
2022/08/03 12:45:25;;;;;;;3.17;2.60;;;28.80;97.00;;;;;;10626144;27;20188;-89
2022/08/03 12:50:31;;;;;;;4.85;3.58;;;28.70;94.10;;;;;;10625399;27;20196;-89
2022/08/03 12:55:38;;;;;;;3.85;3.47;;;28.30;98.80;;;;;;10607531;27;20237;-89
2022/08/03 13:01:03;;;;;;;4.90;4.10;;;27.70;98.80;;;;;;10624730;27;20283;-89
2022/08/03 13:06:17;;;;;;;7.43;3.13;;;28.10;98.00;;;;;;10597689;27;20253;-90
2022/08/03 13:11:24;;;;;;;3.75;3.03;;;27.90;99.90;;;;;;10624357;27;20604;-90
2022/08/03 13:16:47;;;;;;;3.40;3.08;;;28.40;97.40;;;;;;10605274;27;20208;-89
2022/08/03 13:21:50;;;;;;;3.78;3.40;;;29.00;95.30;;;;;;10623879;27;20625;-90
2022/08/03 13:27:06;;;;;;;3.55;3.25;;;29.00;94.40;;;;;;10623508;27;20196;-89
2022/08/03 13:32:29;;;;;;;6.25;3.58;;;28.50;95.90;;;;;;10604715;27;20277;-90
2022/08/03 13:37:31;;;;;;;3.08;2.83;;;29.00;93.20;;;;;;10623625;27;20600;-90
2022/08/03 13:42:35;;;;;;;3.92;3.63;;;28.80;95.30;;;;;;10605009;28;20196;-90
2022/08/03 13:47:38;;;;;;;3.38;3.00;;;29.30;95.80;;;;;;10623389;28;20222;-89
2022/08/03 13:52:40;;;;;;;15.40;3.22;;;29.50;94.50;;;;;;10623535;28;20237;-90
2022/08/03 13:57:43;;;;;;;3.03;2.83;;;28.00;97.80;;;;;;10604419;28;20192;-90
2022/08/03 14:03:06;;;;;;;3.42;2.90;;;28.00;97.30;;;;;;10625253;28;20196;-90
2022/08/03 14:08:15;;;;;;;5.93;3.20;;;29.10;95.70;;;;;;10604567;28;20621;-89
2022/08/03 14:13:18;;;;;;;5.55;3.38;;;29.40;95.30;;;;;;10605361;28;20685;-89
2022/08/03 14:18:21;;;;;;;5.70;3.47;;;29.60;96.60;;;;;;10604407;28;20576;-89
2022/08/03 14:23:36;;;;;;;4.75;3.38;;;29.80;95.50;;;;;;10622847;28;20559;-89
2022/08/03 14:28:39;;;;;;;13.10;3.53;;;28.90;95.10;;;;;;10622502;28;20269;-89
2022/08/03 14:33:42;;;;;;;3.88;3.30;;;28.50;95.90;;;;;;10604174;28;20250;-89
2022/08/03 14:38:45;;;;;;;5.75;4.00;;;28.70;94.70;;;;;;10606463;27;20227;-90
2022/08/03 14:43:47;;;;;;;5.25;4.05;;;28.80;96.40;;;;;;10612071;27;20253;-90
2022/08/03 14:49:04;;;;;;;5.38;3.80;;;28.80;98.10;;;;;;10611451;27;20204;-90
2022/08/03 14:54:29;;;;;;;10.85;4.15;;;28.60;99.10;;;;;;10597611;27;20204;-90
2022/08/03 14:59:32;;;;;;;4.32;3.92;;;29.10;97.40;;;;;;10611134;27;20249;-90
2022/08/03 15:04:55;;;;;;;4.43;3.60;;;28.70;97.20;;;;;;10614296;27;20192;-90
2022/08/03 15:09:58;;;;;;;3.97;3.50;;;27.50;99.90;;;;;;10610786;27;20253;-90
2022/08/03 15:15:03;;;;;;;6.20;3.92;;;28.50;99.10;;;;;;10611392;27;20188;-90
2022/08/03 15:20:07;;;;;;;4.10;3.80;;;28.80;97.80;;;;;;10610246;27;20208;-90
2022/08/03 15:25:30;;;;;;;7.32;4.43;;;28.30;97.10;;;;;;10613968;27;20210;-90
2022/08/03 15:30:52;;;;;;;6.75;3.67;;;28.60;99.60;;;;;;10613629;27;20185;-91
2022/08/03 15:35:55;;;;;;;4.50;4.10;;;28.70;99.50;;;;;;10609818;27;20272;-90
2022/08/03 15:40:58;;;;;;;4.65;4.25;;;28.60;98.20;;;;;;10609707;27;20220;-90
2022/08/03 15:46:00;;;;;;;4.03;3.63;;;28.50;99.90;;;;;;10609310;27;20668;-90
2022/08/03 15:51:23;;;;;;;6.18;4.22;;;27.50;99.90;;;;;;10608422;27;20208;-90
2022/08/03 15:56:26;;;;;;;5.78;4.28;;;27.50;99.90;;;;;;10627361;27;20601;-90
2022/08/03 16:01:29;;;;;;;5.13;4.28;;;27.30;99.90;;;;;;10608098;27;20228;-90
2022/08/03 16:06:31;;;;;;;5.22;4.70;;;27.80;99.90;;;;;;10626749;27;20192;-89
2022/08/03 16:11:37;;;;;;;4.43;4.03;;;27.70;99.90;;;;;;10626727;27;20192;-90
2022/08/03 16:16:40;;;;;;;13.48;4.47;;;27.10;99.60;;;;;;10626152;27;20188;-90
2022/08/03 16:21:42;;;;;;;5.80;4.05;;;27.30;99.90;;;;;;10626061;27;20216;-90
2022/08/03 16:26:51;;;;;;;7.55;4.03;;;27.90;99.90;;;;;;10626094;27;20184;-90
2022/08/03 16:31:54;;;;;;;4.65;4.35;;;27.70;99.90;;;;;;10607721;27;20220;-90
2022/08/03 16:36:56;;;;;;;5.60;4.28;;;27.80;99.60;;;;;;10625478;27;20188;-89
2022/08/03 16:41:59;;;;;;;4.68;4.28;;;27.90;99.90;;;;;;10625162;27;20246;-90
2022/08/03 16:47:03;;;;;;;7.40;4.50;;;27.90;99.90;;;;;;10607255;27;20192;-90
2022/08/03 16:52:05;;;;;;;6.25;4.15;;;27.10;99.90;;;;;;10606170;27;20200;-90
2022/08/03 16:57:08;;;;;;;6.25;4.13;;;27.50;99.90;;;;;;10624670;27;20192;-89
2022/08/03 17:02:20;;;;;;;4.57;3.75;;;27.60;99.90;;;;;;10606091;27;20212;-90
2022/08/03 17:07:27;;;;;;;4.93;4.53;;;27.30;99.90;;;;;;10624657;27;20280;-90
2022/08/03 17:12:31;;;;;;;4.53;4.22;;;26.90;99.90;;;;;;10624424;27;20188;-90
2022/08/03 17:17:35;;;;;;;4.28;3.83;;;26.70;99.90;;;;;;10606607;27;20558;-90
2022/08/03 17:22:58;;;;;;;6.22;4.72;;;26.30;99.90;;;;;;10624083;27;20212;-90
2022/08/03 17:28:02;;;;;;;4.00;3.70;;;26.20;99.90;;;;;;10606032;27;20245;-90
2022/08/03 17:33:25;;;;;;;5.65;4.40;;;26.00;99.90;;;;;;10605277;27;20232;-90
2022/08/03 17:38:39;;;;;;;21.33;4.65;;;26.10;99.90;;;;;;10607338;27;20249;-89
2022/08/03 17:43:45;;;;;;;7.40;4.63;;;26.20;99.90;;;;;;10604401;28;20574;-90
2022/08/03 17:49:08;;;;;;;7.63;4.38;;;26.00;99.90;;;;;;10608631;28;20660;-90
2022/08/03 17:55:25;;;;;;;4.63;4.22;;;25.80;99.90;;;;;;10604630;28;20199;-89
2022/08/03 18:06:36;;;;;;;11.23;4.93;;;25.90;99.90;;;;;;10409918;28;20199;-90
2022/08/03 18:12:00;;;;;;;6.97;5.32;;;25.80;99.90;;;;;;10411566;28;20203;-90
2022/08/03 18:17:06;;;;;;;10.63;4.55;;;25.70;99.90;;;;;;10400775;28;20672;-90
2022/08/03 18:22:29;;;;;;;19.52;5.38;;;25.50;99.90;;;;;;10417973;28;20652;-90
2022/08/03 18:27:33;;;;;;;11.80;5.43;;;25.20;99.90;;;;;;10399663;28;20258;-90
2022/08/03 18:32:47;;;;;;;9.98;4.78;;;25.10;99.90;;;;;;10437885;27;20215;-90
2022/08/03 18:38:02;;;;;;;7.22;5.13;;;24.80;99.90;;;;;;10634202;27;20188;-89
2022/08/03 18:43:11;;;;;;;13.75;5.47;;;24.60;99.90;;;;;;10598466;27;20220;-90
2022/08/03 18:48:45;;;;;;;8.43;5.18;;;24.40;99.90;;;;;;10612638;27;20569;-90
2022/08/03 18:53:59;;;;;;;23.00;7.15;;;24.00;99.90;;;;;;10595221;27;20250;-89
2022/08/03 18:59:29;;;;;;;6.93;5.28;;;23.80;99.90;;;;;;10625420;27;20224;-90
2022/08/03 19:04:42;;;;;;;11.40;5.20;;;23.60;99.90;;;;;;10621791;27;20246;-90
2022/08/03 19:09:57;;;;;;;11.27;6.20;;;23.40;99.90;;;;;;10623180;27;20218;-89
2022/08/03 19:15:03;;;;;;;7.85;5.78;;;;;;;;;;10619355;27;20233;-90
2022/08/03 19:20:08;;;;;;;12.23;6.25;;;23.00;99.90;;;;;;10632740;27;20204;-90
2022/08/03 19:25:10;;;;;;;9.95;5.55;;;22.80;99.90;;;;;;10615907;27;20200;-90
2022/08/03 19:30:34;;;;;;;10.55;5.22;;;22.60;99.90;;;;;;10614456;27;20230;-90
2022/08/03 19:35:42;;;;;;;15.80;5.95;;;22.50;99.90;;;;;;10588099;28;20225;-90
2022/08/03 19:41:02;;;;;;;11.50;6.68;;;22.40;99.90;;;;;;10585295;28;20216;-90
2022/08/03 19:46:09;;;;;;;11.50;5.72;;;;;;;;;;10584503;28;20606;-90
2022/08/03 19:51:15;;;;;;;16.15;6.25;;;22.20;99.90;;;;;;10583452;28;20262;-90
2022/08/03 19:56:22;;;;;;;7.28;6.32;;;22.10;99.90;;;;;;10585286;28;20218;-89
2022/08/03 20:01:26;;;;;;;10.57;6.65;;;22.00;99.90;;;;;;10583359;28;20228;-90
2022/08/03 20:06:30;;;;;;;11.25;6.85;;;21.90;99.90;;;;;;10584401;28;20193;-90
2022/08/03 20:11:34;;;;;;;10.68;6.13;;;21.70;99.90;;;;;;10582937;28;20270;-91
2022/08/03 20:16:57;;;;;;;12.07;6.63;;;21.50;99.90;;;;;;10582701;28;20205;-90
2022/08/03 20:22:00;;;;;;;10.35;6.70;;;21.30;99.90;;;;;;10582713;28;20213;-90
2022/08/03 20:27:07;;;;;;;8.50;6.53;;;21.20;99.90;;;;;;10583690;28;20192;-90
2022/08/03 20:32:09;;;;;;;11.25;6.75;;;21.10;99.90;;;;;;10591610;27;20227;-90
2022/08/03 20:37:12;;;;;;;7.13;6.43;;;21.10;99.90;;;;;;10589595;27;20201;-90
2022/08/03 20:42:14;;;;;;;6.70;6.07;;;21.00;99.90;;;;;;10625440;27;20216;-90
2022/08/03 20:47:41;;;;;;;13.80;7.15;;;20.90;99.90;;;;;;10606223;27;20204;-90
2022/08/03 20:52:53;;;;;;;8.88;7.15;;;21.00;99.90;;;;;;10624947;27;20249;-88
2022/08/03 20:57:58;;;;;;;7.32;6.72;;;20.80;99.90;;;;;;10606054;27;20204;-88
2022/08/03 21:03:01;;;;;;;10.43;6.85;;;20.80;99.90;;;;;;10624591;27;20216;-88
2022/08/03 21:08:06;;;;;;;7.28;6.65;;;20.80;99.90;;;;;;10606634;27;20188;-87
2022/08/03 21:13:27;;;;;;;13.10;7.03;;;20.80;99.90;;;;;;10588529;27;20577;-88
2022/08/03 21:18:33;;;;;;;7.70;6.97;;;20.60;99.90;;;;;;10605470;27;20200;-90
2022/08/03 21:23:38;;;;;;;5.18;4.78;;;20.50;99.90;;;;;;10605573;27;20268;-90
2022/08/03 21:28:54;;;;;;;4.97;4.57;;;20.50;99.90;;;;;;10623857;27;20196;-90
2022/08/03 21:34:00;;;;;;;5.88;5.25;;;20.90;99.90;;;;;;10623731;27;20599;-91
2022/08/03 21:39:07;;;;;;;7.13;6.57;;;20.90;99.90;;;;;;10605371;27;20193;-90
2022/08/03 21:44:09;;;;;;;8.43;7.63;;;20.70;99.90;;;;;;10623517;27;20212;-90
2022/08/03 21:49:12;;;;;;;4.70;4.40;;;20.60;99.90;;;;;;10614892;27;20196;-90
2022/08/03 21:54:41;;;;;;;6.65;6.00;;;20.70;99.90;;;;;;10619333;27;20632;-90
2022/08/03 21:59:55;;;;;;;5.00;4.60;;;20.70;99.90;;;;;;10637486;27;20242;-88
2022/08/03 22:04:58;;;;;;;4.90;4.57;;;20.70;99.90;;;;;;10601082;27;20273;-88
2022/08/03 22:10:03;;;;;;;5.00;4.60;;;20.80;99.90;;;;;;10637105;27;20543;-88
2022/08/03 22:15:09;;;;;;;9.93;7.90;;;21.00;99.90;;;;;;10619014;27;20196;-88
2022/08/03 22:20:13;;;;;;;5.97;5.47;;;21.00;99.90;;;;;;10617997;27;20212;-88
2022/08/03 22:25:16;;;;;;;5.63;5.22;;;20.80;99.90;;;;;;10618668;27;20188;-88
2022/08/03 22:30:19;;;;;;;5.07;4.68;;;21.00;99.90;;;;;;10618683;27;20241;-88
2022/08/03 22:35:24;;;;;;;6.32;4.90;;;21.00;99.90;;;;;;10636554;27;20594;-88
2022/08/03 22:40:27;;;;;;;4.90;4.60;;;21.20;99.90;;;;;;10600696;27;20788;-88
2022/08/03 22:45:30;;;;;;;6.75;6.05;;;21.10;99.90;;;;;;10636493;27;20192;-88
2022/08/03 22:50:54;;;;;;;6.38;5.78;;;21.20;99.90;;;;;;10621824;27;20655;-88
2022/08/03 22:55:57;;;;;;;5.18;4.78;;;21.10;99.90;;;;;;10636452;27;20196;-87
2022/08/03 23:01:06;;;;;;;6.22;4.78;;;21.10;99.90;;;;;;10629976;27;20213;-88
2022/08/03 23:06:09;;;;;;;5.32;4.80;;;21.10;99.90;;;;;;10611126;27;20200;-88
2022/08/03 23:11:14;;;;;;;5.20;4.80;;;21.30;99.90;;;;;;10629061;27;20200;-88
2022/08/03 23:16:19;;;;;;;4.85;4.45;;;21.20;99.90;;;;;;10610078;27;20257;-88
2022/08/03 23:21:32;;;;;;;5.25;4.75;;;21.30;99.90;;;;;;10609621;27;20760;-88
2022/08/03 23:26:55;;;;;;;5.22;4.82;;;21.30;99.90;;;;;;10628574;27;20225;-87
2022/08/03 23:32:00;;;;;;;5.38;4.88;;;21.30;99.90;;;;;;10610219;27;20232;-90
2022/08/03 23:37:04;;;;;;;4.43;4.07;;;21.40;99.90;;;;;;10609790;27;20196;-90
2022/08/03 23:42:08;;;;;;;5.10;4.70;;;21.40;99.90;;;;;;10609785;27;20273;-90
2022/08/03 23:47:12;;;;;;;4.93;4.53;;;21.50;99.90;;;;;;10609381;27;20192;-90
2022/08/03 23:52:20;;;;;;;5.30;4.90;;;21.50;99.90;;;;;;10609480;27;20196;-91
2022/08/03 23:57:39;;;;;;;5.88;5.35;;;21.50;99.90;;;;;;10592286;27;20208;-90
